Time;durP1;ratioP1;P1;durP2;ratioP2;P2;SDS_P1;SDS_P2;PMS_P1;PMS_P2;Temp;Humidity;BMP_temperature;BMP_pressure;BME280_temperature;BME280_humidity;BME280_pressure;Samples;Min_cycle;Max_cycle;Signal;HPM_P1;HPM_P2
2023/02/07 00:00:10;;;;;;;41.10;18.08;;;;;;;-14.10;60.95;100650.47;4770961;30;20048;-78
2023/02/07 00:02:48;;;;;;;36.10;17.02;;;;;;;-14.20;61.12;100654.34;4769853;30;20056;-79
2023/02/07 00:05:15;;;;;;;33.45;17.17;;;;;;;-14.26;60.79;100659.22;4769574;30;20059;-78
2023/02/07 00:07:41;;;;;;;35.65;17.60;;;;;;;-14.33;60.98;100669.19;4754984;30;20078;-78
2023/02/07 00:10:08;;;;;;;31.58;17.38;;;;;;;-14.41;61.13;100666.31;4771442;30;20396;-79
2023/02/07 00:12:34;;;;;;;53.65;18.02;;;;;;;-14.46;61.06;100665.25;4769717;30;20082;-78
2023/02/07 00:15:00;;;;;;;35.10;17.27;;;;;;;-14.54;61.31;100662.41;4754482;30;20056;-77
2023/02/07 00:17:28;;;;;;;37.20;17.60;;;;;;;-14.51;61.27;100661.66;4769851;30;20090;-77
2023/02/07 00:19:53;;;;;;;45.05;17.08;;;;;;;-14.56;61.26;100660.59;4771046;30;20565;-77
2023/02/07 00:22:19;;;;;;;40.25;17.55;;;;;;;-14.60;62.75;100663.84;4755001;30;20048;-78
2023/02/07 00:24:45;;;;;;;42.33;18.63;;;;;;;-14.51;62.49;100672.81;4754906;30;20496;-77
2023/02/07 00:27:11;;;;;;;42.38;19.55;;;;;;;-14.55;62.44;100673.50;4769865;30;20078;-77
2023/02/07 00:29:37;;;;;;;49.17;20.42;;;;;;;-14.50;62.55;100679.69;4754748;30;20110;-78
2023/02/07 00:32:03;;;;;;;44.60;20.42;;;;;;;-14.46;62.50;100686.66;4768840;30;20055;-77
2023/02/07 00:34:30;;;;;;;54.13;19.83;;;;;;;-14.43;62.45;100682.50;4770257;30;20047;-78
2023/02/07 00:36:56;;;;;;;45.63;19.02;;;;;;;-14.44;62.17;100681.59;4754700;30;20479;-79
2023/02/07 00:39:23;;;;;;;49.60;20.10;;;;;;;-14.39;62.50;100676.66;4754556;30;20151;-79
2023/02/07 00:41:49;;;;;;;38.78;19.45;;;;;;;-14.38;62.35;100671.59;4754701;30;20174;-78
2023/02/07 00:44:15;;;;;;;46.85;20.65;;;;;;;-14.36;62.47;100671.66;4769215;30;20056;-79
2023/02/07 00:46:41;;;;;;;43.78;20.88;;;;;;;-14.31;62.73;100671.03;4739869;30;20467;-76
2023/02/07 00:49:06;;;;;;;51.70;20.27;;;;;;;-14.31;62.71;100668.44;4769198;30;20043;-78
2023/02/07 00:51:33;;;;;;;45.60;21.00;;;;;;;-14.28;62.27;100667.72;4769530;30;20043;-77
2023/02/07 00:53:59;;;;;;;48.33;20.63;;;;;;;-14.31;62.30;100675.28;4770621;30;20043;-78
2023/02/07 00:56:27;;;;;;;45.42;19.02;;;;;;;-14.33;62.63;100671.75;4769215;30;20520;-79
2023/02/07 00:58:53;;;;;;;46.95;19.35;;;;;;;-14.31;62.52;100675.28;4739181;30;20040;-78
2023/02/07 01:01:19;;;;;;;44.97;19.55;;;;;;;-14.30;62.11;100682.16;4739137;30;20113;-78
2023/02/07 01:03:45;;;;;;;48.70;20.17;;;;;;;-14.30;62.07;100679.59;4783718;30;20509;-78
2023/02/07 01:06:11;;;;;;;46.08;19.45;;;;;;;-14.35;61.79;100678.53;4768926;30;20053;-77
2023/02/07 01:08:39;;;;;;;36.75;18.58;;;;;;;-14.48;61.70;100680.63;4768945;30;20135;-78
2023/02/07 01:11:08;;;;;;;38.65;18.58;;;;;;;-14.54;61.80;100693.22;4753932;30;20148;-79
2023/02/07 01:13:36;;;;;;;39.90;20.52;;;;;;;-14.61;61.54;100696.34;4768846;30;20071;-78
2023/02/07 01:16:02;;;;;;;42.47;18.67;;;;;;;-14.62;61.76;100693.72;4770256;30;20453;-78
2023/02/07 01:18:29;;;;;;;52.70;22.45;;;;;;;-14.68;61.95;100689.19;4769014;30;20496;-77
2023/02/07 01:20:54;;;;;;;44.80;18.42;;;;;;;-14.65;61.70;100698.72;4769098;30;20109;-77
2023/02/07 01:23:21;;;;;;;45.85;21.05;;;;;;;-14.67;62.35;100696.06;4769985;30;20055;-79
2023/02/07 01:25:46;;;;;;;50.10;19.58;;;;;;;-14.68;62.24;100698.56;4783882;30;20135;-78
2023/02/07 01:28:13;;;;;;;49.38;19.90;;;;;;;-14.71;62.32;100696.75;4739263;30;20054;-77
2023/02/07 01:30:42;;;;;;;41.55;21.13;;;;;;;-14.73;62.25;100686.44;4769838;30;20472;-78
2023/02/07 01:33:08;;;;;;;47.65;21.02;;;;;;;-14.76;62.39;100685.41;4753890;30;20154;-78
2023/02/07 01:35:36;;;;;;;48.42;18.80;;;;;;;-14.72;62.25;100692.44;4768639;30;20112;-79
2023/02/07 01:38:02;;;;;;;47.63;21.70;;;;;;;-14.75;62.04;100697.44;4768557;30;20051;-78
2023/02/07 01:40:29;;;;;;;44.58;19.80;;;;;;;-14.76;62.02;100709.38;4783239;30;20056;-78
2023/02/07 01:42:56;;;;;;;43.45;19.45;;;;;;;-14.76;61.81;100703.38;4768537;30;20052;-79
2023/02/07 01:45:36;;;;;;;42.00;20.08;;;;;;;-14.73;61.81;100706.97;4753713;30;20122;-79
2023/02/07 01:48:10;;;;;;;44.83;20.40;;;;;;;-14.67;62.02;100708.91;4769933;30;20048;-77
2023/02/07 01:50:37;;;;;;;41.70;18.88;;;;;;;-14.61;62.12;100708.28;4754185;30;20090;-78
2023/02/07 01:53:05;;;;;;;51.03;21.60;;;;;;;-14.56;62.00;100707.66;4783436;30;20055;-78
2023/02/07 01:55:35;;;;;;;34.07;18.10;;;;;;;-14.51;61.90;100713.88;4768913;30;20058;-77
2023/02/07 01:58:04;;;;;;;36.42;17.92;;;;;;;-14.50;61.73;100709.63;4769712;30;20109;-77
2023/02/07 02:00:30;;;;;;;37.65;18.48;;;;;;;-14.51;61.92;100703.63;4753466;30;20142;-77
2023/02/07 02:02:56;;;;;;;45.67;20.55;;;;;;;-14.46;61.80;100714.91;4754034;30;20162;-77
2023/02/07 02:05:23;;;;;;;46.83;19.05;;;;;;;-14.42;61.75;100708.22;4754054;30;20063;-77
2023/02/07 02:07:49;;;;;;;38.22;19.33;;;;;;;-14.47;61.53;100705.47;4753453;30;20046;-78
2023/02/07 02:10:17;;;;;;;35.78;18.13;;;;;;;-14.44;61.73;100714.97;4783060;30;20047;-78
2023/02/07 02:13:05;;;;;;;42.58;21.10;;;;;;;-14.42;61.51;100715.06;4786054;30;20052;-79
2023/02/07 02:15:40;;;;;;;43.30;19.17;;;;;;;-14.41;61.78;100714.22;4771071;30;20043;-79
2023/02/07 02:18:20;;;;;;;41.53;20.08;;;;;;;-14.41;61.18;100703.97;4801169;29;20089;-77
2023/02/07 02:21:39;;;;;;;46.83;18.88;;;;;;;-14.37;61.31;100719.56;4771581;30;20122;-77
2023/02/07 02:24:29;;;;;;;41.90;18.08;;;;;;;-14.45;60.87;100719.22;4774505;30;20067;-79
2023/02/07 02:27:13;;;;;;;32.05;16.73;;;;;;;-14.48;61.18;100729.41;4771254;30;20051;-77
2023/02/07 02:30:24;;;;;;;39.15;15.65;;;;;;;-14.51;61.01;100724.16;4788017;29;20524;-78
2023/02/07 02:33:09;;;;;;;41.20;16.63;;;;;;;-14.77;60.83;100729.88;4781024;30;20435;-78
2023/02/07 02:35:52;;;;;;;36.40;16.80;;;;;;;-14.83;61.08;100725.34;4774353;30;20047;-78
2023/02/07 02:38:25;;;;;;;37.25;18.20;;;;;;;-14.88;61.47;100731.09;4789292;30;20062;-77
2023/02/07 02:41:10;;;;;;;43.28;18.20;;;;;;;-14.92;61.49;100724.06;4803932;29;20512;-79
2023/02/07 02:43:53;;;;;;;43.00;18.75;;;;;;;-14.95;62.06;100724.81;4788724;30;20082;-78
2023/02/07 02:46:34;;;;;;;47.95;21.00;;;;;;;-14.91;62.02;100736.06;4788850;30;20504;-78
2023/02/07 02:49:02;;;;;;;48.53;18.67;;;;;;;-15.11;62.51;100742.91;4774204;30;20063;-78
2023/02/07 02:51:29;;;;;;;42.92;20.05;;;;;;;-15.12;62.31;100735.97;4773695;30;20411;-79
2023/02/07 02:53:58;;;;;;;43.05;18.67;;;;;;;-15.17;62.74;100743.47;4788636;30;20051;-79
2023/02/07 02:56:46;;;;;;;36.70;17.08;;;;;;;-15.37;63.52;100749.41;4773817;30;20043;-77
2023/02/07 02:59:20;;;;;;;41.28;17.90;;;;;;;-15.60;63.51;100751.78;4773882;30;20392;-79
2023/02/07 03:02:08;;;;;;;70.10;22.48;;;;;;;-15.78;63.99;100745.81;4773602;30;20087;-79
2023/02/07 03:04:58;;;;;;;70.95;16.95;;;;;;;-15.62;63.90;100749.94;4804065;29;20054;-80
2023/02/07 03:07:39;;;;;;;61.97;18.80;;;;;;;-15.53;63.94;100756.38;4759042;30;20047;-79
2023/02/07 03:10:11;;;;;;;116.47;19.98;;;;;;;-15.54;64.15;100756.28;4759022;30;20059;-80
2023/02/07 03:12:40;;;;;;;63.05;18.33;;;;;;;-15.65;65.05;100760.94;4789183;29;20136;-79
2023/02/07 03:15:23;;;;;;;110.00;20.55;;;;;;;-15.63;64.88;100754.19;4758762;30;20055;-78
2023/02/07 03:17:58;;;;;;;88.45;20.70;;;;;;;-15.71;65.32;100758.09;4788604;30;20114;-77
2023/02/07 03:20:33;;;;;;;134.27;20.02;;;;;;;-15.89;66.25;100767.47;4758827;30;20051;-79
2023/02/07 03:23:01;;;;;;;291.23;35.80;;;;;;;-15.82;66.33;100772.09;4788929;30;20074;-78
2023/02/07 03:25:30;;;;;;;235.40;30.90;;;;;;;-15.84;66.63;100781.38;4785267;30;20201;-77
2023/02/07 03:27:58;;;;;;;299.67;39.33;;;;;;;-15.81;66.58;100786.66;4785404;30;20504;-78
2023/02/07 03:30:30;;;;;;;308.70;35.45;;;;;;;-16.01;66.75;100798.50;4763141;29;20320;-80
2023/02/07 03:33:06;;;;;;;155.18;22.60;;;;;;;-16.37;68.57;100797.50;4785583;30;20087;-78
2023/02/07 03:35:56;;;;;;;14.80;8.70;;;;;;;-16.80;69.69;100800.47;4788073;30;20078;-79
2023/02/07 03:38:23;;;;;;;20.85;8.32;;;;;;;-17.26;71.71;100805.66;4773722;30;20053;-80
2023/02/07 03:40:57;;;;;;;228.15;18.15;;;;;;;-17.41;71.92;100788.72;4757167;30;20051;-78
2023/02/07 03:43:28;;;;;;;139.30;14.90;;;;;;;-17.38;72.59;100798.22;4789236;29;20093;-79
2023/02/07 03:45:55;;;;;;;154.02;12.95;;;;;;;-17.27;72.71;100802.22;4758602;30;20051;-81
2023/02/07 03:48:21;;;;;;;30.00;8.90;;;;;;;-17.50;73.46;100803.53;4787626;29;20104;-79
2023/02/07 03:50:50;;;;;;;99.85;16.25;;;;;;;-17.52;73.83;100809.34;4757108;30;20051;-79
2023/02/07 03:53:18;;;;;;;200.65;25.58;;;;;;;-17.29;73.45;100808.06;4788585;29;20051;-78
2023/02/07 03:55:44;;;;;;;290.05;21.40;;;;;;;-17.06;73.20;100792.28;4804185;29;20142;-76
2023/02/07 03:58:09;;;;;;;139.57;17.20;;;;;;;-16.88;72.88;100801.72;4789464;29;20559;-77
2023/02/07 04:00:36;;;;;;;159.02;17.08;;;;;;;-16.71;72.68;100806.88;4787129;30;20201;-77
2023/02/07 04:03:03;;;;;;;187.65;20.13;;;;;;;-16.55;72.62;100816.22;4787002;30;20058;-79
2023/02/07 04:05:29;;;;;;;252.77;20.80;;;;;;;-16.46;72.17;100819.28;4788767;29;20096;-77
2023/02/07 04:07:55;;;;;;;83.70;15.60;;;;;;;-16.34;72.30;100813.91;4788810;30;20055;-77
2023/02/07 04:10:21;;;;;;;135.82;17.60;;;;;;;-16.32;71.97;100811.41;4802593;29;20564;-79
2023/02/07 04:12:46;;;;;;;160.52;19.85;;;;;;;-16.22;72.02;100808.53;4787679;30;20059;-78
2023/02/07 04:15:12;;;;;;;144.27;20.02;;;;;;;-16.07;71.70;100804.16;4787458;30;20067;-77
2023/02/07 04:17:38;;;;;;;166.77;20.50;;;;;;;-15.97;71.82;100818.31;4772531;30;20078;-79
2023/02/07 04:20:05;;;;;;;77.72;18.50;;;;;;;-16.01;71.87;100812.16;4787693;30;20093;-80
2023/02/07 04:22:31;;;;;;;85.80;19.60;;;;;;;-15.88;71.59;100799.97;4757793;30;20091;-78
2023/02/07 04:24:57;;;;;;;99.85;21.33;;;;;;;-15.80;71.20;100803.75;4787597;30;20408;-79
2023/02/07 04:27:23;;;;;;;159.02;25.40;;;;;;;-15.69;71.03;100812.84;4773699;30;20055;-78
2023/02/07 04:29:49;;;;;;;72.68;18.23;;;;;;;-15.70;70.96;100804.28;4772463;30;20043;-79
2023/02/07 04:32:15;;;;;;;67.57;17.60;;;;;;;-15.59;70.95;100803.91;4802018;29;20462;-78
2023/02/07 04:34:41;;;;;;;37.67;14.48;;;;;;;-15.47;70.78;100800.22;4802518;29;20051;-78
2023/02/07 04:37:07;;;;;;;48.17;19.80;;;;;;;-15.35;69.80;100799.03;4787307;30;20047;-82
2023/02/07 04:39:33;;;;;;;42.50;17.48;;;;;;;-15.26;69.39;100790.09;4787414;30;20054;-77
2023/02/07 04:41:59;;;;;;;34.58;15.38;;;;;;;-15.13;69.06;100798.34;4802033;29;20047;-80
2023/02/07 04:44:25;;;;;;;39.30;17.08;;;;;;;-15.05;68.71;100795.31;4771996;30;20043;-78
2023/02/07 04:46:50;;;;;;;33.97;16.50;;;;;;;-15.07;67.35;100803.78;4787957;29;20061;-81
2023/02/07 04:49:16;;;;;;;42.38;17.75;;;;;;;-15.14;66.79;100802.63;4786647;30;20130;-78
2023/02/07 04:51:42;;;;;;;46.40;18.00;;;;;;;-15.05;66.52;100800.47;4786763;29;20055;-78
2023/02/07 04:54:08;;;;;;;31.92;15.05;;;;;;;-14.95;66.58;100810.34;4788087;29;20130;-78
2023/02/07 04:56:36;;;;;;;74.00;15.75;;;;;;;-14.87;65.89;100827.78;4786873;30;20118;-78
2023/02/07 04:59:02;;;;;;;34.55;15.18;;;;;;;-14.75;66.12;100825.75;4772952;30;20521;-80
2023/02/07 05:01:28;;;;;;;35.78;14.50;;;;;;;-14.65;65.28;100838.19;4802459;29;20047;-79
2023/02/07 05:03:54;;;;;;;33.97;15.77;;;;;;;-14.55;65.07;100839.47;4787288;30;20088;-78
2023/02/07 05:06:20;;;;;;;41.85;14.15;;;;;;;-14.50;65.11;100833.75;4772660;30;20442;-78
2023/02/07 05:08:45;;;;;;;29.92;12.18;;;;;;;-14.57;64.52;100825.69;4772462;30;20059;-78
2023/02/07 05:11:12;;;;;;;24.17;11.57;;;;;;;-14.59;64.72;100833.34;4772787;30;20062;-77
2023/02/07 05:13:38;;;;;;;33.28;15.15;;;;;;;-14.65;65.05;100833.06;4771789;30;20423;-80
2023/02/07 05:16:05;;;;;;;36.85;15.23;;;;;;;-14.56;65.08;100838.59;4786955;30;20059;-78
2023/02/07 05:18:31;;;;;;;32.58;15.60;;;;;;;-14.42;64.75;100852.00;4786809;30;20055;-79
2023/02/07 05:20:57;;;;;;;45.10;17.67;;;;;;;-14.32;63.94;100848.19;4788176;30;20174;-79
2023/02/07 05:23:24;;;;;;;33.28;15.85;;;;;;;-14.39;63.42;100847.03;4768084;30;20047;-83
2023/02/07 05:25:49;;;;;;;35.72;17.13;;;;;;;-14.25;63.62;100845.06;4754667;30;20043;-79
2023/02/07 05:28:15;;;;;;;44.25;16.48;;;;;;;-14.17;62.94;100851.41;4753946;30;20562;-83
2023/02/07 05:30:41;;;;;;;29.58;14.95;;;;;;;-14.32;62.48;100853.31;4768197;30;20051;-78
2023/02/07 05:33:07;;;;;;;44.28;15.35;;;;;;;-14.45;62.86;100852.75;4768504;30;20077;-79
2023/02/07 05:35:38;;;;;;;54.58;14.40;;;;;;;-14.56;62.76;100851.44;4768578;30;20055;-78
2023/02/07 05:38:11;;;;;;;31.95;12.73;;;;;;;-14.57;62.15;100857.38;4753791;30;20509;-78
2023/02/07 05:40:38;;;;;;;38.38;13.35;;;;;;;-14.40;62.55;100860.69;4739247;30;20409;-78
2023/02/07 05:43:05;;;;;;;49.38;18.20;;;;;;;-14.27;62.25;100856.94;4744591;30;20048;-81
2023/02/07 05:45:31;;;;;;;44.15;17.80;;;;;;;-14.10;62.16;100853.44;4771575;30;20043;-78
2023/02/07 05:47:57;;;;;;;37.28;16.10;;;;;;;-14.01;62.69;100853.81;4771453;30;20569;-79
2023/02/07 05:50:24;;;;;;;50.10;16.25;;;;;;;-13.92;62.23;100865.28;4755974;30;20135;-80
2023/02/07 05:53:03;;;;;;;25.08;12.32;;;;;;;-13.91;61.36;100854.19;4786994;29;20426;-78
2023/02/07 05:55:28;;;;;;;32.40;14.40;;;;;;;-14.12;61.30;100854.16;4801184;29;20077;-80
2023/02/07 05:57:54;;;;;;;33.83;16.38;;;;;;;-13.99;61.54;100865.03;4786371;30;20043;-78
2023/02/07 06:00:21;;;;;;;42.20;17.98;;;;;;;-13.99;61.53;100854.75;4786152;30;20039;-79
2023/02/07 06:02:46;;;;;;;48.85;19.20;;;;;;;-13.99;61.75;100859.00;4786044;29;20059;-79
2023/02/07 06:05:15;;;;;;;42.30;18.27;;;;;;;-13.63;62.24;100849.38;4774232;30;20495;-79
2023/02/07 06:07:41;;;;;;;47.42;18.80;;;;;;;-13.26;61.35;100866.31;4775002;30;20112;-78
2023/02/07 06:10:07;;;;;;;51.92;19.30;;;;;;;-13.06;61.32;100880.81;4790140;30;20059;-80
2023/02/07 06:12:33;;;;;;;48.70;19.77;;;;;;;-13.02;60.72;100871.50;4774763;30;20055;-81
2023/02/07 06:14:59;;;;;;;49.45;18.75;;;;;;;-12.98;60.32;100879.41;4789466;30;20058;-78
2023/02/07 06:17:25;;;;;;;49.53;18.63;;;;;;;-12.95;60.43;100888.94;4789329;30;20051;-80
2023/02/07 06:19:51;;;;;;;67.28;20.77;;;;;;;-12.78;60.92;100887.03;4773319;30;20051;-79
2023/02/07 06:22:17;;;;;;;60.40;22.80;;;;;;;-12.63;60.31;100886.75;4758519;30;20159;-81
2023/02/07 06:24:42;;;;;;;64.55;21.20;;;;;;;-12.52;60.42;100881.19;4788466;29;20051;-78
2023/02/07 06:27:08;;;;;;;51.70;18.73;;;;;;;-12.64;59.52;100885.84;4773648;30;20051;-78
2023/02/07 06:29:37;;;;;;;42.75;18.67;;;;;;;-12.63;59.65;100877.31;4788410;30;20059;-79
2023/02/07 06:32:03;;;;;;;53.35;21.38;;;;;;;-12.43;60.12;100877.19;4787814;30;20058;-79
2023/02/07 06:34:29;;;;;;;48.50;17.30;;;;;;;-12.60;59.94;100885.13;4788329;30;20509;-81
2023/02/07 06:36:55;;;;;;;46.50;19.13;;;;;;;-12.68;60.42;100878.81;4786017;30;20059;-81
2023/02/07 06:39:21;;;;;;;38.05;18.27;;;;;;;-12.48;62.49;100875.31;4785795;29;20058;-80
2023/02/07 06:41:47;;;;;;;52.20;21.05;;;;;;;-11.96;63.43;100888.31;4771562;30;20519;-79
2023/02/07 06:44:13;;;;;;;42.50;17.95;;;;;;;-11.88;61.39;100887.78;4771888;30;20047;-79
2023/02/07 06:46:38;;;;;;;42.33;18.40;;;;;;;-12.49;60.52;100891.56;4771663;30;20059;-79
2023/02/07 06:49:07;;;;;;;49.85;22.60;;;;;;;-12.36;61.32;100892.91;4771549;30;20043;-80
2023/02/07 06:51:32;;;;;;;52.90;21.83;;;;;;;-12.04;61.17;100896.66;4773028;30;20063;-81
2023/02/07 06:54:00;;;;;;;50.05;21.73;;;;;;;-11.79;60.69;100902.66;4789960;30;20051;-82
2023/02/07 06:56:26;;;;;;;48.25;22.63;;;;;;;-11.61;60.84;100905.88;4790114;29;20093;-80
2023/02/07 06:58:52;;;;;;;54.00;22.90;;;;;;;-11.45;60.47;100908.97;4788895;29;20051;-81
2023/02/07 07:01:18;;;;;;;54.58;22.10;;;;;;;-11.44;60.44;100900.38;4774096;30;20047;-81
2023/02/07 07:03:45;;;;;;;51.00;21.85;;;;;;;-11.44;60.35;100905.53;4773597;30;20051;-80
2023/02/07 07:06:11;;;;;;;51.38;22.17;;;;;;;-11.41;61.08;100906.53;4789901;30;20047;-80
2023/02/07 07:08:37;;;;;;;42.95;15.88;;;;;;;-11.50;60.89;100901.94;4790097;30;20055;-80
2023/02/07 07:11:03;;;;;;;39.10;18.17;;;;;;;-11.66;61.77;100909.09;4774013;30;20493;-82
2023/02/07 07:13:29;;;;;;;49.70;22.27;;;;;;;-11.75;62.67;100909.66;4789779;30;20071;-80
2023/02/07 07:15:55;;;;;;;32.58;15.40;;;;;;;-12.18;62.66;100905.59;4788389;29;20047;-80
2023/02/07 07:18:20;;;;;;;50.65;19.27;;;;;;;-12.23;62.73;100912.28;4773497;30;20503;-80
2023/02/07 07:20:52;;;;;;;50.30;18.60;;;;;;;-12.01;63.01;100912.22;4788414;30;20112;-79
2023/02/07 07:23:17;;;;;;;39.40;18.17;;;;;;;-11.67;62.78;100897.91;4774059;30;20097;-81
2023/02/07 07:25:43;;;;;;;49.72;21.80;;;;;;;-11.33;62.40;100894.75;4773719;30;20067;-82
2023/02/07 07:28:09;;;;;;;54.85;23.27;;;;;;;-11.04;61.99;100902.56;4789544;29;20059;-80
2023/02/07 07:30:34;;;;;;;65.43;26.25;;;;;;;-10.77;61.51;100897.38;4789378;29;20404;-81
2023/02/07 07:33:00;;;;;;;59.42;24.65;;;;;;;-10.56;60.71;100910.97;4789745;29;20086;-81
2023/02/07 07:35:27;;;;;;;66.97;25.42;;;;;;;-10.52;60.06;100905.06;4774754;30;20138;-80
2023/02/07 07:37:53;;;;;;;73.57;29.48;;;;;;;-10.54;60.07;100901.53;4788754;30;20066;-82
2023/02/07 07:40:19;;;;;;;66.93;24.20;;;;;;;-10.66;59.97;100918.38;4789487;30;20400;-80
2023/02/07 07:42:45;;;;;;;63.30;27.05;;;;;;;-10.63;60.45;100918.50;4773988;30;20139;-81
2023/02/07 07:45:36;;;;;;;67.75;27.35;;;;;;;-10.44;60.68;100922.50;4799818;29;20058;-78
2023/02/07 07:48:02;;;;;;;65.15;27.63;;;;;;;-10.30;60.31;100923.78;4772521;30;20134;-81
2023/02/07 07:50:28;;;;;;;86.22;32.58;;;;;;;-10.11;60.26;100923.47;4772834;30;20092;-83
2023/02/07 07:52:54;;;;;;;98.88;35.85;;;;;;;-10.07;60.16;100919.25;4773400;30;20047;-82
2023/02/07 07:55:20;;;;;;;96.68;36.08;;;;;;;-9.95;59.57;100908.38;4754574;30;20047;-80
2023/02/07 07:57:45;;;;;;;77.18;32.63;;;;;;;-10.10;59.24;100916.56;4802693;29;20082;-80
2023/02/07 08:00:12;;;;;;;86.72;34.00;;;;;;;-9.89;59.54;100918.88;4772993;30;20397;-82
2023/02/07 08:02:42;;;;;;;86.95;35.42;;;;;;;-9.66;59.53;100911.75;4788107;30;20133;-79
2023/02/07 08:05:08;;;;;;;94.50;39.95;;;;;;;-9.54;59.13;100912.94;4773325;30;20126;-80
2023/02/07 08:07:34;;;;;;;95.25;36.90;;;;;;;-9.44;59.04;100908.00;4790597;29;20050;-80
2023/02/07 08:10:00;;;;;;;75.80;32.22;;;;;;;-9.54;58.78;100912.94;4759009;30;20043;-79
2023/02/07 08:12:26;;;;;;;107.93;38.53;;;;;;;-9.27;58.82;100911.03;4757966;30;20534;-79
2023/02/07 08:14:52;;;;;;;99.20;37.58;;;;;;;-8.96;58.28;100913.50;4787380;30;20146;-82
2023/02/07 08:17:17;;;;;;;90.68;33.13;;;;;;;-9.06;58.13;100904.66;4787547;30;20212;-80
2023/02/07 08:19:43;;;;;;;92.88;37.88;;;;;;;-8.97;57.67;100910.91;4787507;30;20056;-77
2023/02/07 08:22:09;;;;;;;101.85;41.17;;;;;;;-8.93;57.60;100926.56;4788366;30;20055;-79
2023/02/07 08:24:35;;;;;;;100.43;38.50;;;;;;;-8.78;57.39;100920.84;4757777;30;20084;-82
2023/02/07 08:27:01;;;;;;;96.57;40.22;;;;;;;-8.46;57.16;100925.88;4772233;30;20424;-81
2023/02/07 08:29:27;;;;;;;103.50;43.00;;;;;;;-8.58;56.74;100922.19;4788514;30;20047;-80
2023/02/07 08:31:53;;;;;;;105.90;41.80;;;;;;;-8.45;56.85;100922.47;4787226;29;20476;-79
2023/02/07 08:34:23;;;;;;;105.18;41.10;;;;;;;-8.33;56.88;100923.56;4772109;30;20050;-78
2023/02/07 08:36:49;;;;;;;89.90;37.15;;;;;;;-8.38;56.12;100909.69;4788466;30;20054;-79
2023/02/07 08:39:15;;;;;;;87.40;37.17;;;;;;;-8.14;56.03;100903.22;4787184;30;20164;-80
2023/02/07 08:41:45;;;;;;;97.15;41.20;;;;;;;-8.22;55.61;100907.38;4789904;30;20039;-94
2023/02/07 08:44:11;;;;;;;91.93;37.50;;;;;;;-8.20;55.42;100903.06;4772946;30;20062;-81
2023/02/07 08:46:36;;;;;;;70.97;33.13;;;;;;;-8.24;55.31;100896.94;4788861;29;20043;-81
2023/02/07 08:49:02;;;;;;;90.18;35.88;;;;;;;-7.95;55.54;100899.25;4757454;30;20047;-81
2023/02/07 08:51:28;;;;;;;66.07;29.20;;;;;;;-7.99;54.54;100894.88;4787238;30;20119;-81
2023/02/07 08:53:54;;;;;;;73.35;29.90;;;;;;;-8.04;53.52;100896.50;4788233;30;20043;-81
2023/02/07 08:56:19;;;;;;;54.05;25.15;;;;;;;-8.39;52.74;100901.84;4786451;30;20054;-79
2023/02/07 08:58:45;;;;;;;60.22;27.48;;;;;;;-8.49;54.14;100892.13;4758343;30;20556;-81
2023/02/07 09:01:12;;;;;;;66.50;28.95;;;;;;;-8.56;54.31;100898.91;4754304;30;20047;-80
2023/02/07 09:03:38;;;;;;;62.30;29.33;;;;;;;-8.47;54.73;100887.84;4770096;30;20142;-82
2023/02/07 09:06:04;;;;;;;73.43;32.60;;;;;;;-8.77;55.12;100894.09;4772124;30;20176;-81
2023/02/07 09:08:30;;;;;;;77.32;33.40;;;;;;;-8.93;55.85;100892.88;4788028;29;20525;-80
2023/02/07 09:10:56;;;;;;;74.28;34.65;;;;;;;-8.86;55.95;100884.41;4787624;30;20514;-83
2023/02/07 09:13:22;;;;;;;66.63;31.60;;;;;;;-8.84;55.86;100882.72;4789322;29;20067;-81
2023/02/07 09:15:54;;;;;;;67.50;30.23;;;;;;;-8.90;55.33;100886.88;4757490;30;20047;-81
2023/02/07 09:18:20;;;;;;;52.78;24.55;;;;;;;-9.16;55.78;100879.38;4801805;29;20090;-81
2023/02/07 09:20:47;;;;;;;59.08;26.42;;;;;;;-9.02;56.27;100882.31;4801690;29;20051;-81
2023/02/07 09:23:18;;;;;;;55.38;25.77;;;;;;;-8.89;56.27;100886.03;4802033;29;20156;-81
2023/02/07 09:25:49;;;;;;;57.85;23.27;;;;;;;-8.77;55.41;100877.66;4788049;30;20043;-81
2023/02/07 09:28:16;;;;;;;47.85;22.88;;;;;;;-8.91;55.32;100872.16;4789309;30;20059;-80
2023/02/07 09:30:43;;;;;;;54.00;23.38;;;;;;;-8.72;55.50;100870.91;4788868;29;20058;-81
2023/02/07 09:33:10;;;;;;;62.42;23.13;;;;;;;-8.82;55.13;100870.66;4802097;29;20054;-81
2023/02/07 09:35:42;;;;;;;50.88;24.55;;;;;;;-8.58;55.09;100878.09;4802103;29;20061;-80
2023/02/07 09:38:13;;;;;;;37.42;19.80;;;;;;;-8.71;54.59;100873.50;4801944;29;20066;-82
2023/02/07 09:40:40;;;;;;;57.35;24.15;;;;;;;-8.81;54.94;100866.34;4791040;30;20488;-81
2023/02/07 09:43:17;;;;;;;45.35;23.20;;;;;;;-8.68;55.34;100857.16;4791151;29;20142;-81
2023/02/07 09:45:47;;;;;;;44.20;22.10;;;;;;;-8.85;54.63;100870.59;4776073;30;20054;-83
2023/02/07 09:48:19;;;;;;;47.80;22.35;;;;;;;-8.70;55.17;100876.97;4775036;30;20488;-83
2023/02/07 09:50:53;;;;;;;43.65;21.80;;;;;;;-8.40;55.32;100879.34;4790391;30;20524;-83
2023/02/07 09:53:41;;;;;;;50.10;22.40;;;;;;;-8.28;54.35;100869.19;4804963;29;20104;-82
2023/02/07 09:56:09;;;;;;;29.70;14.20;;;;;;;-8.51;53.69;100871.34;4790270;30;20063;-82
2023/02/07 09:59:03;;;;;;;43.35;18.42;;;;;;;-8.69;54.25;100876.13;4789669;30;20047;-82
2023/02/07 10:01:44;;;;;;;53.90;22.88;;;;;;;-8.66;54.95;100868.41;4760393;30;20131;-82
2023/02/07 10:04:12;;;;;;;50.33;21.98;;;;;;;-8.50;55.09;100878.25;4790450;30;20530;-82
2023/02/07 10:06:42;;;;;;;54.97;23.15;;;;;;;-8.74;54.70;100878.63;4761872;30;20051;-83
2023/02/07 10:09:14;;;;;;;34.83;17.90;;;;;;;-8.74;54.58;100888.97;4790920;30;20051;-83
2023/02/07 10:11:43;;;;;;;51.28;24.33;;;;;;;-8.53;54.60;100886.00;4791047;29;20407;-81
2023/02/07 10:14:41;;;;;;;43.47;22.23;;;;;;;-8.32;54.68;100888.13;4760371;30;20149;-81
2023/02/07 10:17:25;;;;;;;44.58;19.15;;;;;;;-8.37;53.45;100894.97;4768291;30;20063;-81
2023/02/07 10:19:54;;;;;;;39.22;17.27;;;;;;;-8.53;53.59;100898.09;4759798;30;20047;-83
2023/02/07 10:22:34;;;;;;;45.88;21.67;;;;;;;-8.62;54.00;100889.25;4791031;29;20138;-91
2023/02/07 10:25:27;;;;;;;37.33;18.90;;;;;;;-8.42;54.12;100894.91;4777782;30;20062;-88
2023/02/07 10:28:03;;;;;;;46.28;21.52;;;;;;;-8.08;53.94;100892.97;4792629;30;20499;-90
2023/02/07 10:30:37;;;;;;;42.35;22.08;;;;;;;-8.00;53.50;100890.53;4796122;29;20043;-89
2023/02/07 10:33:15;;;;;;;51.13;24.58;;;;;;;-7.81;53.50;100887.44;4795400;30;20058;-89
2023/02/07 10:35:44;;;;;;;45.97;22.95;;;;;;;-7.78;53.11;100882.31;4807240;29;20499;-91
2023/02/07 10:38:41;;;;;;;48.50;22.67;;;;;;;-7.48;53.09;100894.09;4779406;30;20499;-89
2023/02/07 10:41:19;;;;;;;37.50;18.67;;;;;;;-7.83;51.81;100894.31;4792872;30;20050;-94
2023/02/07 10:43:47;;;;;;;41.25;17.67;;;;;;;-8.00;52.56;100890.53;4806098;29;20055;-85
2023/02/07 10:46:16;;;;;;;39.83;20.63;;;;;;;-7.96;52.48;100898.41;4792326;30;20051;-88
2023/02/07 10:48:42;;;;;;;32.80;16.70;;;;;;;-7.98;51.55;100900.06;4790849;30;20069;-89
2023/02/07 10:51:28;;;;;;;42.60;20.85;;;;;;;-7.86;51.71;100902.03;4791012;29;20491;-90
2023/02/07 10:54:07;;;;;;;32.50;15.45;;;;;;;-8.16;51.19;100897.09;4797768;30;20062;-88
2023/02/07 10:56:45;;;;;;;45.47;20.27;;;;;;;-8.08;51.91;100904.22;4784440;30;20047;-89
2023/02/07 10:59:45;;;;;;;47.50;21.10;;;;;;;-7.81;51.65;100903.00;4800192;30;20055;-89
2023/02/07 11:02:32;;;;;;;55.00;22.95;;;;;;;-7.51;51.17;100892.31;4785320;30;20069;-90
2023/02/07 11:05:04;;;;;;;44.80;21.55;;;;;;;-7.54;51.32;100892.25;4798952;29;20069;-92
2023/02/07 11:07:31;;;;;;;56.33;24.67;;;;;;;-7.61;51.20;100905.97;4761803;30;20077;-89
2023/02/07 11:10:16;;;;;;;47.05;20.38;;;;;;;-7.48;50.36;100907.09;4792030;30;20051;-90
2023/02/07 11:12:47;;;;;;;43.95;22.13;;;;;;;-7.36;50.66;100912.50;4790907;30;20055;-87